sensor_id;sensor_type;location;lat;lon;timestamp;pressure;altitude;pressure_sealevel;temperature;humidity
20971;BME280;10644;48.834;10.088;2023-03-20T00:01:09;96860.81;;;14.33;60.42
20971;BME280;10644;48.834;10.088;2023-03-20T00:03:36;96855.47;;;14.36;60.68
20971;BME280;10644;48.834;10.088;2023-03-20T00:06:01;96858.03;;;14.36;60.53
20971;BME280;10644;48.834;10.088;2023-03-20T00:08:27;96859.59;;;14.38;60.64
20971;BME280;10644;48.834;10.088;2023-03-20T00:10:52;96867.13;;;14.41;60.52
20971;BME280;10644;48.834;10.088;2023-03-20T00:13:24;96859.50;;;14.40;60.50
20971;BME280;10644;48.834;10.088;2023-03-20T00:15:52;96861.13;;;14.41;60.88
20971;BME280;10644;48.834;10.088;2023-03-20T00:18:20;96859.41;;;14.41;60.52
20971;BME280;10644;48.834;10.088;2023-03-20T00:20:48;96859.09;;;14.46;60.83
20971;BME280;10644;48.834;10.088;2023-03-20T00:23:13;96855.56;;;14.47;60.88
20971;BME280;10644;48.834;10.088;2023-03-20T00:25:40;96845.66;;;14.41;60.96
20971;BME280;10644;48.834;10.088;2023-03-20T00:28:36;96859.59;;;14.51;60.38
20971;BME280;10644;48.834;10.088;2023-03-20T00:31:17;96851.25;;;14.47;60.55
20971;BME280;10644;48.834;10.088;2023-03-20T00:33:44;96853.94;;;14.46;60.44
20971;BME280;10644;48.834;10.088;2023-03-20T00:36:09;96847.13;;;14.45;60.63
20971;BME280;10644;48.834;10.088;2023-03-20T00:38:35;96832.50;;;14.45;60.70
20971;BME280;10644;48.834;10.088;2023-03-20T00:41:07;96847.66;;;14.50;61.00
20971;BME280;10644;48.834;10.088;2023-03-20T00:43:39;96844.75;;;14.54;60.78
20971;BME280;10644;48.834;10.088;2023-03-20T00:46:10;96849.81;;;14.56;60.77
20971;BME280;10644;48.834;10.088;2023-03-20T00:48:40;96844.44;;;14.59;60.84
20971;BME280;10644;48.834;10.088;2023-03-20T00:51:09;96834.97;;;14.34;61.59
20971;BME280;10644;48.834;10.088;2023-03-20T00:53:35;96845.03;;;14.25;61.99
20971;BME280;10644;48.834;10.088;2023-03-20T00:56:02;96847.06;;;14.20;62.00
20971;BME280;10644;48.834;10.088;2023-03-20T00:58:27;96843.22;;;14.13;62.36
20971;BME280;10644;48.834;10.088;2023-03-20T01:00:53;96849.19;;;14.01;62.64
20971;BME280;10644;48.834;10.088;2023-03-20T01:03:21;96848.47;;;13.99;62.56
20971;BME280;10644;48.834;10.088;2023-03-20T01:05:48;96848.66;;;13.96;62.69
20971;BME280;10644;48.834;10.088;2023-03-20T01:08:19;96837.53;;;13.95;62.05
20971;BME280;10644;48.834;10.088;2023-03-20T01:10:46;96837.75;;;14.05;62.16
20971;BME280;10644;48.834;10.088;2023-03-20T01:13:26;96836.44;;;14.12;61.65
20971;BME280;10644;48.834;10.088;2023-03-20T01:15:54;96846.88;;;14.23;61.74
20971;BME280;10644;48.834;10.088;2023-03-20T01:18:24;96832.28;;;14.23;61.60
20971;BME280;10644;48.834;10.088;2023-03-20T01:20:50;96841.34;;;14.29;61.21
20971;BME280;10644;48.834;10.088;2023-03-20T01:23:21;96847.72;;;14.36;60.80
20971;BME280;10644;48.834;10.088;2023-03-20T01:25:48;96846.28;;;14.32;60.93
20971;BME280;10644;48.834;10.088;2023-03-20T01:28:20;96853.69;;;14.24;61.22
20971;BME280;10644;48.834;10.088;2023-03-20T01:30:46;96855.25;;;14.26;61.25
20971;BME280;10644;48.834;10.088;2023-03-20T01:33:17;96853.28;;;14.30;61.29
20971;BME280;10644;48.834;10.088;2023-03-20T01:35:44;96851.44;;;14.32;60.91
20971;BME280;10644;48.834;10.088;2023-03-20T01:38:11;96855.59;;;14.34;61.01
20971;BME280;10644;48.834;10.088;2023-03-20T01:40:52;96857.75;;;14.40;60.34
20971;BME280;10644;48.834;10.088;2023-03-20T01:43:24;96854.75;;;14.34;60.52
20971;BME280;10644;48.834;10.088;2023-03-20T01:48:19;96858.56;;;14.02;61.41
20971;BME280;10644;48.834;10.088;2023-03-20T01:50:46;96859.34;;;13.90;62.00
20971;BME280;10644;48.834;10.088;2023-03-20T01:53:24;96858.91;;;13.83;61.83
20971;BME280;10644;48.834;10.088;2023-03-20T01:55:53;96863.16;;;13.84;62.18
20971;BME280;10644;48.834;10.088;2023-03-20T01:58:40;96864.19;;;13.82;61.78
20971;BME280;10644;48.834;10.088;2023-03-20T02:01:09;96865.84;;;13.69;62.58
20971;BME280;10644;48.834;10.088;2023-03-20T02:03:35;96866.88;;;13.66;62.68
20971;BME280;10644;48.834;10.088;2023-03-20T02:06:02;96864.03;;;13.71;62.44
20971;BME280;10644;48.834;10.088;2023-03-20T02:08:29;96873.50;;;13.70;62.46
20971;BME280;10644;48.834;10.088;2023-03-20T02:10:57;96875.88;;;13.73;62.62
20971;BME280;10644;48.834;10.088;2023-03-20T02:13:25;96879.75;;;13.66;63.12
20971;BME280;10644;48.834;10.088;2023-03-20T02:18:30;96879.50;;;13.57;63.47
20971;BME280;10644;48.834;10.088;2023-03-20T02:29:38;96886.88;;;13.49;63.63
20971;BME280;10644;48.834;10.088;2023-03-20T02:35:36;96897.34;;;13.46;63.88
20971;BME280;10644;48.834;10.088;2023-03-20T02:43:38;96902.16;;;13.38;64.95
20971;BME280;10644;48.834;10.088;2023-03-20T02:46:31;96900.13;;;13.43;64.38
20971;BME280;10644;48.834;10.088;2023-03-20T02:51:54;96903.25;;;13.34;65.67
20971;BME280;10644;48.834;10.088;2023-03-20T02:54:32;96905.66;;;13.37;64.90
20971;BME280;10644;48.834;10.088;2023-03-20T02:57:22;96909.78;;;13.40;64.69
20971;BME280;10644;48.834;10.088;2023-03-20T03:00:04;96901.66;;;13.59;64.32
20971;BME280;10644;48.834;10.088;2023-03-20T03:02:37;96894.56;;;13.63;64.23
20971;BME280;10644;48.834;10.088;2023-03-20T03:05:11;96897.13;;;13.63;64.51
20971;BME280;10644;48.834;10.088;2023-03-20T03:07:39;96901.91;;;13.69;64.02
20971;BME280;10644;48.834;10.088;2023-03-20T03:10:59;96901.63;;;13.73;63.66
20971;BME280;10644;48.834;10.088;2023-03-20T03:13:05;96905.22;;;13.71;64.05
20971;BME280;10644;48.834;10.088;2023-03-20T03:15:39;96907.25;;;13.66;64.27
20971;BME280;10644;48.834;10.088;2023-03-20T03:18:14;96900.38;;;13.52;64.69
20971;BME280;10644;48.834;10.088;2023-03-20T03:20:42;96904.13;;;13.61;64.68
20971;BME280;10644;48.834;10.088;2023-03-20T03:23:27;96906.31;;;13.67;63.73
20971;BME280;10644;48.834;10.088;2023-03-20T03:25:55;96910.91;;;13.76;64.06
20971;BME280;10644;48.834;10.088;2023-03-20T03:28:41;96901.16;;;13.81;63.52
20971;BME280;10644;48.834;10.088;2023-03-20T03:31:11;96909.38;;;13.86;63.45
20971;BME280;10644;48.834;10.088;2023-03-20T03:33:40;96915.59;;;13.96;63.49
20971;BME280;10644;48.834;10.088;2023-03-20T03:36:13;96909.75;;;13.94;63.34
20971;BME280;10644;48.834;10.088;2023-03-20T03:41:46;96904.69;;;13.92;63.27
20971;BME280;10644;48.834;10.088;2023-03-20T03:46:57;96912.72;;;13.88;63.67
20971;BME280;10644;48.834;10.088;2023-03-20T03:49:37;96912.09;;;13.97;63.11
20971;BME280;10644;48.834;10.088;2023-03-20T03:52:08;96912.38;;;14.06;63.04
20971;BME280;10644;48.834;10.088;2023-03-20T03:54:42;96911.22;;;14.10;63.22
20971;BME280;10644;48.834;10.088;2023-03-20T03:57:13;96917.75;;;14.16;63.04
20971;BME280;10644;48.834;10.088;2023-03-20T03:59:42;96918.19;;;14.22;62.75
20971;BME280;10644;48.834;10.088;2023-03-20T04:02:10;96917.38;;;14.22;62.55
20971;BME280;10644;48.834;10.088;2023-03-20T04:04:42;96924.47;;;14.18;62.55
20971;BME280;10644;48.834;10.088;2023-03-20T04:07:08;96916.34;;;13.98;62.85
20971;BME280;10644;48.834;10.088;2023-03-20T04:09:33;96920.22;;;13.91;63.07
20971;BME280;10644;48.834;10.088;2023-03-20T04:11:59;96922.63;;;13.94;63.38
20971;BME280;10644;48.834;10.088;2023-03-20T04:14:24;96918.03;;;13.85;63.70
20971;BME280;10644;48.834;10.088;2023-03-20T04:16:49;96919.50;;;13.89;63.12
20971;BME280;10644;48.834;10.088;2023-03-20T04:19:15;96913.72;;;13.85;63.52
20971;BME280;10644;48.834;10.088;2023-03-20T04:21:41;96918.88;;;13.85;63.26
20971;BME280;10644;48.834;10.088;2023-03-20T04:24:06;96918.72;;;13.74;63.73
20971;BME280;10644;48.834;10.088;2023-03-20T04:26:31;96925.19;;;13.68;64.04
20971;BME280;10644;48.834;10.088;2023-03-20T04:28:57;96926.16;;;13.79;63.85
20971;BME280;10644;48.834;10.088;2023-03-20T04:31:22;96919.69;;;13.86;63.47
20971;BME280;10644;48.834;10.088;2023-03-20T04:33:50;96931.06;;;13.96;63.48
20971;BME280;10644;48.834;10.088;2023-03-20T04:36:16;96924.09;;;13.98;63.32
20971;BME280;10644;48.834;10.088;2023-03-20T04:38:41;96938.31;;;14.03;63.18
20971;BME280;10644;48.834;10.088;2023-03-20T04:41:07;96920.28;;;14.03;62.92
20971;BME280;10644;48.834;10.088;2023-03-20T04:43:32;96922.00;;;13.90;63.01
20971;BME280;10644;48.834;10.088;2023-03-20T04:45:58;96926.06;;;13.80;63.27
20971;BME280;10644;48.834;10.088;2023-03-20T04:48:24;96933.44;;;13.73;63.50
20971;BME280;10644;48.834;10.088;2023-03-20T04:50:49;96933.88;;;13.79;63.64
20971;BME280;10644;48.834;10.088;2023-03-20T04:53:16;96936.16;;;13.83;63.47
20971;BME280;10644;48.834;10.088;2023-03-20T04:55:42;96931.78;;;13.71;63.48
20971;BME280;10644;48.834;10.088;2023-03-20T04:58:08;96936.75;;;13.74;63.34
20971;BME280;10644;48.834;10.088;2023-03-20T05:00:33;96938.78;;;13.69;63.28
20971;BME280;10644;48.834;10.088;2023-03-20T05:02:59;96944.25;;;13.37;64.15
20971;BME280;10644;48.834;10.088;2023-03-20T05:05:24;96945.81;;;13.40;63.93
20971;BME280;10644;48.834;10.088;2023-03-20T05:07:50;96940.56;;;13.41;63.76
20971;BME280;10644;48.834;10.088;2023-03-20T05:10:16;96934.50;;;13.42;63.51
20971;BME280;10644;48.834;10.088;2023-03-20T05:12:42;96939.44;;;13.45;62.86
20971;BME280;10644;48.834;10.088;2023-03-20T05:15:07;96946.72;;;13.38;63.84
20971;BME280;10644;48.834;10.088;2023-03-20T05:17:33;96940.09;;;13.48;63.33
20971;BME280;10644;48.834;10.088;2023-03-20T05:19:58;96943.66;;;13.60;62.64
20971;BME280;10644;48.834;10.088;2023-03-20T05:22:24;96940.16;;;13.61;62.18
20971;BME280;10644;48.834;10.088;2023-03-20T05:24:49;96943.66;;;13.60;62.41
20971;BME280;10644;48.834;10.088;2023-03-20T05:27:15;96943.66;;;13.60;61.94
20971;BME280;10644;48.834;10.088;2023-03-20T05:29:41;96944.59;;;13.59;62.24
20971;BME280;10644;48.834;10.088;2023-03-20T05:32:06;96944.97;;;13.53;61.74
20971;BME280;10644;48.834;10.088;2023-03-20T05:34:31;96942.56;;;13.50;61.88
20971;BME280;10644;48.834;10.088;2023-03-20T05:36:57;96934.19;;;13.60;62.10
20971;BME280;10644;48.834;10.088;2023-03-20T05:39:22;96956.72;;;13.71;61.28
20971;BME280;10644;48.834;10.088;2023-03-20T05:41:47;96950.94;;;13.68;61.53
20971;BME280;10644;48.834;10.088;2023-03-20T05:44:13;96958.00;;;13.64;61.63
20971;BME280;10644;48.834;10.088;2023-03-20T05:46:38;96959.47;;;13.68;61.47
20971;BME280;10644;48.834;10.088;2023-03-20T05:49:06;96973.50;;;13.76;60.96
20971;BME280;10644;48.834;10.088;2023-03-20T05:51:32;96969.66;;;13.69;60.87
20971;BME280;10644;48.834;10.088;2023-03-20T05:53:58;96975.06;;;13.79;60.86
20971;BME280;10644;48.834;10.088;2023-03-20T05:56:23;96974.91;;;13.82;60.67
20971;BME280;10644;48.834;10.088;2023-03-20T05:58:50;96980.81;;;13.70;61.31
20971;BME280;10644;48.834;10.088;2023-03-20T06:01:16;96987.25;;;13.49;62.21
20971;BME280;10644;48.834;10.088;2023-03-20T06:03:46;96984.28;;;13.41;61.49
20971;BME280;10644;48.834;10.088;2023-03-20T06:06:11;96994.22;;;13.47;61.55
20971;BME280;10644;48.834;10.088;2023-03-20T06:08:36;96984.66;;;13.35;61.74
20971;BME280;10644;48.834;10.088;2023-03-20T06:11:02;96990.75;;;13.48;61.71
20971;BME280;10644;48.834;10.088;2023-03-20T06:13:28;96988.53;;;13.56;61.49
20971;BME280;10644;48.834;10.088;2023-03-20T06:15:53;96984.97;;;13.45;61.36
20971;BME280;10644;48.834;10.088;2023-03-20T06:18:21;96998.28;;;13.37;61.75
20971;BME280;10644;48.834;10.088;2023-03-20T06:20:51;96983.22;;;13.31;61.80
20971;BME280;10644;48.834;10.088;2023-03-20T06:23:20;96994.06;;;13.36;61.97
20971;BME280;10644;48.834;10.088;2023-03-20T06:25:46;96995.31;;;13.29;61.36
20971;BME280;10644;48.834;10.088;2023-03-20T06:28:11;96988.25;;;13.32;61.70
20971;BME280;10644;48.834;10.088;2023-03-20T06:30:37;96992.00;;;13.41;61.40
20971;BME280;10644;48.834;10.088;2023-03-20T06:33:02;96999.09;;;13.38;61.57
20971;BME280;10644;48.834;10.088;2023-03-20T06:35:30;97004.16;;;13.39;61.65
20971;BME280;10644;48.834;10.088;2023-03-20T06:37:56;97008.94;;;13.31;62.11
20971;BME280;10644;48.834;10.088;2023-03-20T06:40:24;97011.59;;;13.30;62.23
20971;BME280;10644;48.834;10.088;2023-03-20T06:42:51;97013.91;;;13.34;61.62
20971;BME280;10644;48.834;10.088;2023-03-20T06:45:17;97016.56;;;13.32;62.20
20971;BME280;10644;48.834;10.088;2023-03-20T06:47:43;97013.53;;;13.40;62.06
20971;BME280;10644;48.834;10.088;2023-03-20T06:50:09;97016.19;;;13.52;61.95
20971;BME280;10644;48.834;10.088;2023-03-20T06:52:34;97005.81;;;13.54;61.64
20971;BME280;10644;48.834;10.088;2023-03-20T06:55:02;97010.22;;;13.52;61.64
20971;BME280;10644;48.834;10.088;2023-03-20T06:57:28;97006.38;;;13.59;61.48
20971;BME280;10644;48.834;10.088;2023-03-20T06:59:53;97008.56;;;13.65;61.39
20971;BME280;10644;48.834;10.088;2023-03-20T07:02:18;97018.75;;;13.66;61.69
20971;BME280;10644;48.834;10.088;2023-03-20T07:04:44;96999.72;;;13.69;61.10
20971;BME280;10644;48.834;10.088;2023-03-20T07:07:09;97008.38;;;13.82;61.18
20971;BME280;10644;48.834;10.088;2023-03-20T07:09:35;97005.22;;;13.91;61.16
20971;BME280;10644;48.834;10.088;2023-03-20T07:12:01;96996.00;;;14.01;60.83
20971;BME280;10644;48.834;10.088;2023-03-20T07:14:26;96991.28;;;14.07;60.29
20971;BME280;10644;48.834;10.088;2023-03-20T07:16:52;96993.78;;;14.09;60.04
20971;BME280;10644;48.834;10.088;2023-03-20T07:19:22;97000.59;;;14.10;60.33
20971;BME280;10644;48.834;10.088;2023-03-20T07:21:48;97013.69;;;13.93;60.61
20971;BME280;10644;48.834;10.088;2023-03-20T07:24:13;97012.94;;;13.91;60.59
20971;BME280;10644;48.834;10.088;2023-03-20T07:26:39;97007.44;;;13.69;61.06
20971;BME280;10644;48.834;10.088;2023-03-20T07:29:05;97004.50;;;13.75;61.80
20971;BME280;10644;48.834;10.088;2023-03-20T07:31:31;97003.84;;;13.71;61.13
20971;BME280;10644;48.834;10.088;2023-03-20T07:33:57;96996.03;;;13.73;61.33
20971;BME280;10644;48.834;10.088;2023-03-20T07:36:22;97006.22;;;13.88;60.84
20971;BME280;10644;48.834;10.088;2023-03-20T07:38:48;97010.97;;;14.08;60.70
20971;BME280;10644;48.834;10.088;2023-03-20T07:41:13;97007.41;;;13.97;61.06
20971;BME280;10644;48.834;10.088;2023-03-20T07:43:39;97006.22;;;13.88;60.90
20971;BME280;10644;48.834;10.088;2023-03-20T07:46:06;96994.06;;;14.04;60.77
20971;BME280;10644;48.834;10.088;2023-03-20T07:48:32;96994.69;;;14.22;60.07
20971;BME280;10644;48.834;10.088;2023-03-20T07:50:58;96996.38;;;14.35;60.01
20971;BME280;10644;48.834;10.088;2023-03-20T07:53:23;97010.78;;;14.25;59.81
20971;BME280;10644;48.834;10.088;2023-03-20T07:55:49;97004.91;;;14.09;60.22
20971;BME280;10644;48.834;10.088;2023-03-20T07:58:14;97016.03;;;14.10;60.14
20971;BME280;10644;48.834;10.088;2023-03-20T08:00:39;97013.47;;;14.10;60.13
20971;BME280;10644;48.834;10.088;2023-03-20T08:03:05;97012.00;;;14.06;60.21
20971;BME280;10644;48.834;10.088;2023-03-20T08:05:30;97021.38;;;14.07;60.62
20971;BME280;10644;48.834;10.088;2023-03-20T08:07:59;97026.13;;;14.13;60.55
20971;BME280;10644;48.834;10.088;2023-03-20T08:10:25;97018.25;;;14.02;60.23
20971;BME280;10644;48.834;10.088;2023-03-20T08:12:50;97013.47;;;13.96;60.49
20971;BME280;10644;48.834;10.088;2023-03-20T08:15:16;97013.78;;;13.77;60.33
20971;BME280;10644;48.834;10.088;2023-03-20T08:17:42;97005.06;;;13.66;60.82
20971;BME280;10644;48.834;10.088;2023-03-20T08:20:11;97009.84;;;13.72;60.92
20971;BME280;10644;48.834;10.088;2023-03-20T08:22:37;97000.44;;;13.85;60.14
20971;BME280;10644;48.834;10.088;2023-03-20T08:25:03;97000.81;;;13.93;60.13
20971;BME280;10644;48.834;10.088;2023-03-20T08:27:28;96999.50;;;14.00;60.11
20971;BME280;10644;48.834;10.088;2023-03-20T08:29:53;97001.94;;;14.15;60.70
20971;BME280;10644;48.834;10.088;2023-03-20T08:32:21;97002.69;;;14.17;59.65
20971;BME280;10644;48.834;10.088;2023-03-20T08:34:46;97000.25;;;14.28;59.43
20971;BME280;10644;48.834;10.088;2023-03-20T08:37:12;96999.06;;;14.34;58.11
20971;BME280;10644;48.834;10.088;2023-03-20T08:39:38;97012.88;;;14.33;58.26
20971;BME280;10644;48.834;10.088;2023-03-20T08:42:05;97010.84;;;14.38;58.38
20971;BME280;10644;48.834;10.088;2023-03-20T08:44:30;97005.94;;;14.33;57.88
20971;BME280;10644;48.834;10.088;2023-03-20T08:46:56;97007.28;;;14.26;56.99
20971;BME280;10644;48.834;10.088;2023-03-20T08:49:21;97006.50;;;14.38;56.57
20971;BME280;10644;48.834;10.088;2023-03-20T08:51:46;97010.47;;;14.30;57.08
20971;BME280;10644;48.834;10.088;2023-03-20T08:54:12;97020.25;;;14.25;57.50
20971;BME280;10644;48.834;10.088;2023-03-20T08:56:39;97018.66;;;14.36;57.54
20971;BME280;10644;48.834;10.088;2023-03-20T08:59:06;97008.97;;;14.40;57.50
20971;BME280;10644;48.834;10.088;2023-03-20T09:01:32;97004.97;;;14.48;56.86
20971;BME280;10644;48.834;10.088;2023-03-20T09:03:58;97017.72;;;14.64;56.60
20971;BME280;10644;48.834;10.088;2023-03-20T09:06:23;97010.84;;;14.50;56.80
20971;BME280;10644;48.834;10.088;2023-03-20T09:08:48;97019.25;;;14.54;55.88
20971;BME280;10644;48.834;10.088;2023-03-20T09:11:19;97031.69;;;14.47;55.99
20971;BME280;10644;48.834;10.088;2023-03-20T09:13:51;97024.63;;;14.37;56.35
20971;BME280;10644;48.834;10.088;2023-03-20T09:16:17;97021.41;;;14.33;56.79
20971;BME280;10644;48.834;10.088;2023-03-20T09:18:42;97032.50;;;14.48;55.85
20971;BME280;10644;48.834;10.088;2023-03-20T09:21:08;97021.78;;;14.41;56.07
20971;BME280;10644;48.834;10.088;2023-03-20T09:23:33;97025.28;;;14.40;56.16
20971;BME280;10644;48.834;10.088;2023-03-20T09:25:58;97028.13;;;14.36;56.54
20971;BME280;10644;48.834;10.088;2023-03-20T09:28:24;97021.38;;;14.47;55.43
20971;BME280;10644;48.834;10.088;2023-03-20T09:30:55;97028.41;;;14.58;57.32
20971;BME280;10644;48.834;10.088;2023-03-20T09:33:23;97026.00;;;14.81;55.94
20971;BME280;10644;48.834;10.088;2023-03-20T09:35:49;97023.56;;;14.92;55.67
20971;BME280;10644;48.834;10.088;2023-03-20T09:38:15;97025.84;;;14.97;55.12
20971;BME280;10644;48.834;10.088;2023-03-20T09:40:52;97025.13;;;15.20;54.97
20971;BME280;10644;48.834;10.088;2023-03-20T09:43:52;97029.38;;;15.08;53.99
20971;BME280;10644;48.834;10.088;2023-03-20T09:54:38;97031.47;;;15.53;53.36
20971;BME280;10644;48.834;10.088;2023-03-20T09:57:08;97018.25;;;15.45;53.60
20971;BME280;10644;48.834;10.088;2023-03-20T09:59:39;97016.38;;;15.72;52.94
20971;BME280;10644;48.834;10.088;2023-03-20T10:02:13;97002.31;;;15.89;52.54
20971;BME280;10644;48.834;10.088;2023-03-20T10:04:41;97002.22;;;16.14;51.99
20971;BME280;10644;48.834;10.088;2023-03-20T10:07:09;97010.19;;;16.47;51.46
20971;BME280;10644;48.834;10.088;2023-03-20T10:09:37;97004.28;;;16.45;50.02
20971;BME280;10644;48.834;10.088;2023-03-20T10:12:22;97003.03;;;16.74;49.98
20971;BME280;10644;48.834;10.088;2023-03-20T10:20:12;97010.66;;;16.75;49.44
20971;BME280;10644;48.834;10.088;2023-03-20T10:22:42;97013.06;;;16.89;47.38
20971;BME280;10644;48.834;10.088;2023-03-20T10:25:32;97002.44;;;17.27;48.52
20971;BME280;10644;48.834;10.088;2023-03-20T10:28:00;96995.44;;;17.51;45.84
20971;BME280;10644;48.834;10.088;2023-03-20T10:33:03;97001.56;;;17.50;45.31
20971;BME280;10644;48.834;10.088;2023-03-20T10:35:41;96984.59;;;17.57;44.80
20971;BME280;10644;48.834;10.088;2023-03-20T10:40:54;96975.84;;;18.02;45.52
20971;BME280;10644;48.834;10.088;2023-03-20T10:43:35;96973.22;;;18.13;45.48
20971;BME280;10644;48.834;10.088;2023-03-20T10:46:14;96985.47;;;18.33;43.65
20971;BME280;10644;48.834;10.088;2023-03-20T10:48:47;96981.25;;;18.10;43.04
20971;BME280;10644;48.834;10.088;2023-03-20T10:51:17;96986.09;;;17.92;43.04
20971;BME280;10644;48.834;10.088;2023-03-20T10:56:19;96977.34;;;18.15;44.19
20971;BME280;10644;48.834;10.088;2023-03-20T10:58:49;96976.91;;;17.99;46.29
20971;BME280;10644;48.834;10.088;2023-03-20T11:01:19;96982.00;;;17.90;46.53
20971;BME280;10644;48.834;10.088;2023-03-20T11:03:45;96968.72;;;17.50;46.89
20971;BME280;10644;48.834;10.088;2023-03-20T11:06:25;96989.72;;;17.35;47.21
20971;BME280;10644;48.834;10.088;2023-03-20T11:08:52;96979.72;;;17.19;47.87
20971;BME280;10644;48.834;10.088;2023-03-20T11:11:26;96986.88;;;17.16;48.00
20971;BME280;10644;48.834;10.088;2023-03-20T11:13:52;96994.63;;;17.05;48.04
20971;BME280;10644;48.834;10.088;2023-03-20T11:16:22;96995.75;;;16.90;48.24
20971;BME280;10644;48.834;10.088;2023-03-20T11:18:49;96998.31;;;16.68;48.23
20971;BME280;10644;48.834;10.088;2023-03-20T11:21:43;96997.56;;;16.66;48.29
20971;BME280;10644;48.834;10.088;2023-03-20T11:24:25;97002.78;;;16.30;48.69
20971;BME280;10644;48.834;10.088;2023-03-20T11:26:52;96993.47;;;16.27;48.49
20971;BME280;10644;48.834;10.088;2023-03-20T11:29:28;96995.38;;;16.49;48.17
20971;BME280;10644;48.834;10.088;2023-03-20T11:32:45;96988.31;;;16.40;48.30
20971;BME280;10644;48.834;10.088;2023-03-20T11:35:28;97000.69;;;16.35;48.18
20971;BME280;10644;48.834;10.088;2023-03-20T11:38:19;96996.69;;;16.31;48.03
20971;BME280;10644;48.834;10.088;2023-03-20T11:40:46;96986.06;;;16.23;47.83
20971;BME280;10644;48.834;10.088;2023-03-20T11:43:36;96991.38;;;16.09;48.43
20971;BME280;10644;48.834;10.088;2023-03-20T11:46:09;96995.53;;;15.99;48.77
20971;BME280;10644;48.834;10.088;2023-03-20T11:48:37;96987.91;;;16.21;48.90
20971;BME280;10644;48.834;10.088;2023-03-20T11:51:15;96978.34;;;16.10;49.01
20971;BME280;10644;48.834;10.088;2023-03-20T11:53:59;96996.09;;;16.15;49.05
20971;BME280;10644;48.834;10.088;2023-03-20T11:56:29;96994.63;;;16.23;48.48
20971;BME280;10644;48.834;10.088;2023-03-20T12:01:57;96997.63;;;16.30;49.05
20971;BME280;10644;48.834;10.088;2023-03-20T12:04:31;96999.53;;;16.15;49.44
20971;BME280;10644;48.834;10.088;2023-03-20T12:07:12;96992.22;;;16.33;49.33
20971;BME280;10644;48.834;10.088;2023-03-20T12:09:46;96991.16;;;16.35;49.04
20971;BME280;10644;48.834;10.088;2023-03-20T12:21:38;96982.16;;;16.17;48.88
20971;BME280;10644;48.834;10.088;2023-03-20T12:23:47;96972.25;;;16.11;49.05
20971;BME280;10644;48.834;10.088;2023-03-20T12:26:21;96976.13;;;16.17;49.52
20971;BME280;10644;48.834;10.088;2023-03-20T12:28:55;96973.00;;;16.24;49.43
20971;BME280;10644;48.834;10.088;2023-03-20T12:31:31;96972.19;;;16.24;49.53
20971;BME280;10644;48.834;10.088;2023-03-20T12:34:02;96965.31;;;16.12;49.83
20971;BME280;10644;48.834;10.088;2023-03-20T12:36:47;96974.28;;;16.19;49.85
20971;BME280;10644;48.834;10.088;2023-03-20T12:39:15;96972.56;;;16.07;50.05
20971;BME280;10644;48.834;10.088;2023-03-20T12:47:22;96962.75;;;16.12;49.64
20971;BME280;10644;48.834;10.088;2023-03-20T12:55:41;96962.31;;;16.18;49.99
20971;BME280;10644;48.834;10.088;2023-03-20T13:06:31;96959.84;;;16.04;49.86
20971;BME280;10644;48.834;10.088;2023-03-20T13:20:32;96956.84;;;16.10;50.11
20971;BME280;10644;48.834;10.088;2023-03-20T13:23:11;96950.53;;;16.14;50.46
20971;BME280;10644;48.834;10.088;2023-03-20T13:31:20;96949.75;;;16.48;47.40
20971;BME280;10644;48.834;10.088;2023-03-20T13:36:58;96948.41;;;16.66;48.67
20971;BME280;10644;48.834;10.088;2023-03-20T13:39:34;96945.16;;;16.75;47.93
20971;BME280;10644;48.834;10.088;2023-03-20T13:42:03;96937.75;;;16.81;47.78
20971;BME280;10644;48.834;10.088;2023-03-20T13:44:33;96936.63;;;16.62;48.06
20971;BME280;10644;48.834;10.088;2023-03-20T13:47:10;96945.84;;;16.77;48.23
20971;BME280;10644;48.834;10.088;2023-03-20T13:52:20;96931.06;;;16.90;48.08
20971;BME280;10644;48.834;10.088;2023-03-20T13:58:17;96933.13;;;16.63;48.81
20971;BME280;10644;48.834;10.088;2023-03-20T14:01:07;96925.63;;;16.71;48.37
20971;BME280;10644;48.834;10.088;2023-03-20T14:03:43;96919.41;;;16.84;47.86
20971;BME280;10644;48.834;10.088;2023-03-20T14:08:52;96914.59;;;16.45;47.73
20971;BME280;10644;48.834;10.088;2023-03-20T14:14:01;96916.88;;;16.61;48.03
20971;BME280;10644;48.834;10.088;2023-03-20T14:16:28;96917.75;;;16.72;47.13
20971;BME280;10644;48.834;10.088;2023-03-20T14:19:19;96921.41;;;16.81;47.47
20971;BME280;10644;48.834;10.088;2023-03-20T14:21:46;96910.16;;;17.04;47.43
20971;BME280;10644;48.834;10.088;2023-03-20T14:24:14;96911.81;;;17.16;46.77
20971;BME280;10644;48.834;10.088;2023-03-20T14:26:41;96909.25;;;17.38;46.17
20971;BME280;10644;48.834;10.088;2023-03-20T14:31:37;96913.72;;;17.58;45.09
20971;BME280;10644;48.834;10.088;2023-03-20T14:36:55;96902.66;;;17.45;44.58
20971;BME280;10644;48.834;10.088;2023-03-20T14:39:49;96907.13;;;17.54;45.19
20971;BME280;10644;48.834;10.088;2023-03-20T14:45:39;96896.31;;;17.38;45.96
20971;BME280;10644;48.834;10.088;2023-03-20T14:48:15;96889.94;;;17.53;45.32
20971;BME280;10644;48.834;10.088;2023-03-20T14:53:31;96889.44;;;17.70;45.16
20971;BME280;10644;48.834;10.088;2023-03-20T15:01:04;96889.19;;;17.62;45.82
20971;BME280;10644;48.834;10.088;2023-03-20T15:03:31;96891.59;;;17.54;45.60
20971;BME280;10644;48.834;10.088;2023-03-20T15:05:59;96883.59;;;17.88;45.72
20971;BME280;10644;48.834;10.088;2023-03-20T15:08:32;96875.50;;;17.82;45.74
20971;BME280;10644;48.834;10.088;2023-03-20T15:11:04;96867.75;;;17.71;45.50
20971;BME280;10644;48.834;10.088;2023-03-20T15:13:35;96873.75;;;17.71;45.11
20971;BME280;10644;48.834;10.088;2023-03-20T15:16:08;96873.97;;;17.79;45.21